Latest Weather Observations for Cape Leeuwin

IDW60801

Issued at 9:35 pm WST Friday 19 September 2014 (issued every 30 minutes, with the page automatically refreshed every 10 minutes)

About weather observations | Map of weather stations | Latest weather observations for WA | Other Formats
Station Details ID: 009518 Name: CAPE LEEUWIN Lat: -34.37 Lon: 115.14 Height: 13.0 m
Data from the previous 72 hours. | See also: Recent months at Cape Leeuwin
Date/Time
WST
Temp
°C
App
Temp
°C
Dew
Point
Rel
Hum
%
Delta-T
°C
Wind Press
QNH
hPa
Press
MSL
hPa
Rain
since 9 am
mm
Dir
 
Spd
km/h
Gust
km/h
Spd
kts
Gust
kts
19/09:30pm 17.1 18.0 13.9 81 1.8 NE 2 7 1 4 1020.5 1020.5 0.0
19/09:00pm 17.6 17.8 14.1 80 2.0 NNW 6 9 3 5 1020.6 1020.6 0.0
19/08:30pm 18.9 17.6 14.9 77 2.3 WNW 15 17 8 9 1020.9 1020.9 0.0
19/08:00pm 19.0 16.7 14.1 73 2.8 WNW 19 20 10 11 1020.7 1020.7 0.0
19/07:30pm 19.2 17.1 15.1 77 2.4 WNW 20 24 11 13 1020.6 1020.6 0.0
19/07:00pm 19.3 16.6 14.6 74 2.7 WNW 22 28 12 15 1020.5 1020.5 0.0
19/06:30pm 19.3 16.0 15.0 76 2.5 WNW 26 30 14 16 1020.4 1020.4 0.0
19/06:00pm 19.5 16.0 14.5 73 2.9 WNW 26 30 14 16 1020.2 1020.2 0.0
19/05:30pm 19.7 15.4 14.5 72 3.0 WNW 30 33 16 18 1020.0 1020.0 0.0
19/05:00pm 19.9 16.4 14.6 71 3.1 NW 26 30 14 16 1020.0 1020.0 0.0
19/04:30pm 20.7 17.3 14.7 68 3.5 NW 26 30 14 16 1020.0 1020.0 0.0
19/04:00pm 20.4 16.9 14.4 68 3.5 NW 26 30 14 16 1020.1 1020.1 0.0
19/03:30pm 20.9 17.4 14.6 67 3.7 NW 26 30 14 16 1020.1 1020.1 0.0
19/03:00pm 20.7 17.3 14.7 68 3.5 NW 26 32 14 17 1020.2 1020.2 0.0
19/02:30pm 20.4 16.5 14.4 68 3.5 NW 28 32 15 17 1020.2 1020.2 0.0
19/02:00pm 20.6 16.7 14.4 67 3.6 NW 28 35 15 19 1020.4 1020.4 0.0
19/01:30pm 20.5 16.9 14.1 66 3.7 NW 26 32 14 17 1020.5 1020.5 0.0
19/01:00pm 20.3 16.4 13.3 64 4.0 WNW 26 30 14 16 1020.6 1020.6 0.0
19/12:30pm 20.1 16.7 12.6 62 4.2 WNW 22 26 12 14 1020.8 1020.8 0.0
19/12:00pm 20.0 17.0 12.5 62 4.2 WNW 20 24 11 13 1021.1 1021.1 0.0
19/11:30am 20.4 18.0 12.8 61 4.3 WNW 17 19 9 10 1021.4 1021.4 0.0
19/11:00am 19.8 18.9 12.7 63 4.0 WNW 9 13 5 7 1021.5 1021.5 0.0
19/10:30am 19.7 19.6 12.1 61 4.2 NNE 4 7 2 4 1021.7 1021.7 0.0
19/10:00am 19.4 18.9 12.6 64 3.8 E 7 11 4 6 1022.0 1022.0 0.0
19/09:30am 19.0 18.5 12.1 64 3.8 W 6 7 3 4 1022.2 1022.2 0.0
19/09:00am 18.2 17.4 11.6 65 3.6 WSW 7 9 4 5 1022.3 1022.3 0.4
19/08:30am 18.7 19.3 12.0 65 3.7 CALM 0 7 0 4 1022.2 1022.2 0.4
19/08:00am 17.7 17.2 12.0 69 3.1 SW 6 9 3 5 1021.9 1021.9 0.4
19/07:30am 16.7 16.2 11.9 73 2.6 SSW 6 7 3 4 1021.6 1021.6 0.4
19/07:00am 16.1 15.3 11.2 72 2.6 W 6 9 3 5 1021.2 1021.2 0.4
19/06:30am 15.3 14.3 11.0 75 2.3 SW 7 11 4 6 1020.7 1020.7 0.4
19/06:00am 16.1 14.9 11.5 74 2.5 W 9 13 5 7 1020.5 1020.5 0.4
19/05:30am 15.9 14.2 11.2 73 2.5 SW 11 15 6 8 1020.4 1020.4 0.4
19/05:00am 15.7 13.3 11.4 75 2.3 SW 15 20 8 11 1020.2 1020.2 0.4
19/04:30am 16.0 12.2 11.3 73 2.5 SSW 22 28 12 15 1020.0 1020.0 0.4
19/04:00am 16.2 11.4 11.8 75 2.4 SW 28 35 15 19 1019.7 1019.7 0.4
19/03:30am 16.5 11.3 12.9 79 2.0 SW 32 39 17 21 1019.5 1019.5 0.4
19/03:00am 17.1 11.8 14.1 82 1.7 WSW 35 43 19 23 1019.1 1019.1 0.4
19/02:30am 17.2 11.6 14.4 83 1.6 WSW 37 46 20 25 1019.2 1019.2 0.4
19/02:00am 17.3 11.6 15.2 87 1.2 W 39 52 21 28 1019.1 1019.1 0.0
19/01:30am 17.9 12.6 15.2 84 1.6 W 37 44 20 24 1019.3 1019.3 0.0
19/01:00am 17.9 13.2 14.8 82 1.8 W 33 39 18 21 1019.4 1019.4 0.0
19/12:30am 17.9 12.3 14.4 80 2.0 WNW 37 43 20 23 1019.3 1019.3 0.0
19/12:00am 17.9 12.3 14.4 80 2.0 WNW 37 44 20 24 1019.3 1019.3 0.0
 
Date/Time
WST
Temp
°C
App
Temp
°C
Dew
Point
Rel
Hum
%
Delta-T
°C
Wind Press
QNH
hPa
Press
MSL
hPa
Rain
since 9 am
mm
Dir
 
Spd
km/h
Gust
km/h
Spd
kts
Gust
kts
18/11:30pm 17.7 11.6 14.2 80 2.0 WNW 39 44 21 24 1019.3 1019.3 0.0
18/11:00pm 17.9 13.0 14.4 80 2.0 WNW 33 41 18 22 1019.5 1019.5 0.0
18/10:30pm 17.7 12.8 14.2 80 2.0 WNW 33 39 18 21 1019.4 1019.4 0.0
18/10:00pm 17.8 13.0 14.1 79 2.1 WNW 32 37 17 20 1019.5 1019.5 0.0
18/09:30pm 17.7 11.5 13.8 78 2.2 W 39 44 21 24 1019.8 1019.8 0.0
18/09:00pm 17.9 12.2 14.2 79 2.1 W 37 43 20 23 1019.7 1019.7 0.0
18/08:30pm 17.8 13.3 13.9 78 2.2 WNW 30 35 16 19 1019.3 1019.3 0.0
18/08:00pm 17.5 12.4 13.0 75 2.5 WNW 32 35 17 19 1018.9 1018.9 0.0
18/07:30pm 17.5 12.0 12.6 73 2.7 WNW 33 39 18 21 1019.0 1019.0 0.0
18/07:00pm 17.6 12.2 12.7 73 2.7 WNW 33 39 18 21 1018.7 1018.7 0.0
18/06:30pm 17.6 12.3 13.1 75 2.5 W 33 39 18 21 1018.5 1018.5 0.0
18/06:00pm 17.6 13.3 13.3 76 2.4 WNW 28 33 15 18 1017.9 1017.9 0.0
18/05:30pm 17.7 13.2 12.5 71 2.9 WNW 28 32 15 17 1017.8 1017.8 0.0
18/05:00pm 18.3 14.3 12.9 71 3.0 WNW 26 32 14 17 1017.7 1017.7 0.0
18/04:30pm 18.7 14.4 12.2 66 3.6 W 26 30 14 16 1017.5 1017.5 0.0
18/04:00pm 18.8 14.3 12.5 67 3.5 W 28 32 15 17 1017.3 1017.3 0.0
18/03:30pm 19.1 14.6 12.5 65 3.7 W 28 32 15 17 1017.3 1017.3 0.0
18/03:00pm 19.1 15.3 12.5 65 3.7 W 24 30 13 16 1017.1 1017.1 0.0
18/02:30pm 19.5 15.7 11.3 59 4.5 W 22 26 12 14 1017.1 1017.1 0.0
18/02:00pm 19.5 16.1 12.5 64 3.9 W 22 28 12 15 1017.3 1017.3 0.0
18/01:30pm 19.7 16.6 12.2 62 4.2 W 20 24 11 13 1017.4 1017.4 0.0
18/01:00pm 19.3 16.2 12.1 63 4.0 W 20 26 11 14 1017.8 1017.8 0.0
18/12:30pm 19.3 15.8 12.3 64 3.9 W 22 28 12 15 1018.1 1018.1 0.0
18/12:00pm 19.0 15.5 12.1 64 3.8 WSW 22 26 12 14 1018.4 1018.4 0.0
18/11:30am 18.9 15.5 12.6 67 3.5 WSW 22 26 12 14 1018.4 1018.4 0.0
18/11:00am 18.3 14.8 12.3 68 3.3 WSW 22 28 12 15 1018.5 1018.5 0.0
18/10:30am 18.4 15.9 13.6 73 2.7 WSW 19 24 10 13 1018.4 1018.4 0.0
18/10:00am 18.2 16.2 13.8 75 2.5 WSW 17 22 9 12 1018.4 1018.4 0.0
18/09:30am 18.0 15.5 14.2 78 2.2 WSW 20 26 11 14 1018.4 1018.4 0.0
18/09:00am 18.1 15.6 14.1 77 2.3 SW 20 24 11 13 1018.4 1018.4 0.0
18/08:30am 18.0 15.8 14.3 79 2.1 SW 19 22 10 12 1018.4 1018.4 0.0
18/08:00am 18.3 18.9 14.3 77 2.3 S 4 9 2 5 1018.3 1018.3 0.0
18/07:30am 17.4 17.6 14.1 81 1.9 S 6 9 3 5 1018.2 1018.2 0.0
18/07:00am 16.5 16.0 13.7 83 1.6 S 9 11 5 6 1018.0 1018.0 0.0
18/06:30am 15.9 15.6 13.2 84 1.5 SE 7 9 4 5 1017.7 1017.7 0.0
18/06:00am 15.9 15.6 13.4 85 1.4 ESE 7 9 4 5 1017.6 1017.6 0.0
18/05:30am 16.0 15.3 13.3 84 1.5 SE 9 13 5 7 1017.5 1017.5 0.0
18/05:00am 16.4 15.5 13.6 83 1.6 ESE 11 15 6 8 1017.5 1017.5 0.0
18/04:30am 16.4 15.5 13.6 83 1.6 ESE 11 15 6 8 1017.6 1017.6 0.0
18/04:00am 16.4 15.9 13.7 84 1.5 SE 9 15 5 8 1017.8 1017.8 0.0
18/03:30am 16.6 16.2 14.0 84 1.5 ESE 9 13 5 7 1017.9 1017.9 0.0
18/03:00am 16.6 15.4 14.0 84 1.5 ESE 13 15 7 8 1017.7 1017.7 0.0
18/02:30am 16.5 15.3 14.0 85 1.4 ESE 13 17 7 9 1017.8 1017.8 0.0
18/02:00am 16.5 15.0 14.2 86 1.3 E 15 19 8 10 1018.0 1018.0 0.0
18/01:30am 16.6 14.8 14.5 87 1.2 E 17 20 9 11 1018.2 1018.2 0.0
18/01:00am 16.8 14.7 14.7 87 1.2 E 19 22 10 12 1018.3 1018.3 0.0
18/12:30am 17.3 15.2 15.1 87 1.3 ESE 20 24 11 13 1018.3 1018.3 0.0
18/12:00am 17.0 14.3 13.4 79 2.0 SE 20 24 11 13 1018.3 1018.3 0.0
 
Date/Time
WST
Temp
°C
App
Temp
°C
Dew
Point
Rel
Hum
%
Delta-T
°C
Wind Press
QNH
hPa
Press
MSL
hPa
Rain
since 9 am
mm
Dir
 
Spd
km/h
Gust
km/h
Spd
kts
Gust
kts
17/11:30pm 17.1 14.5 13.9 81 1.8 SE 20 26 11 14 1018.5 1018.5 0.0
17/11:00pm 17.1 13.9 13.2 78 2.2 SE 22 28 12 15 1018.7 1018.7 0.0
17/10:30pm 17.1 13.9 13.2 78 2.2 SSE 22 28 12 15 1018.9 1018.9 0.0
17/10:00pm 17.2 13.6 13.1 77 2.3 SE 24 28 13 15 1018.9 1018.9 0.0
17/09:30pm 17.3 13.7 13.2 77 2.3 SE 24 32 13 17 1018.9 1018.9 0.0
17/09:00pm 17.3 13.1 12.4 73 2.7 SE 26 32 14 17 1019.0 1019.0 0.0
17/08:30pm 17.3 13.2 12.6 74 2.6 SSE 26 32 14 17 1018.8 1018.8 0.0
17/08:00pm 17.3 12.9 12.8 75 2.5 SE 28 33 15 18 1018.5 1018.5 0.0
17/07:30pm 17.5 12.7 13.0 75 2.5 SE 30 35 16 19 1018.1 1018.1 0.0
17/07:00pm 17.4 12.4 12.3 72 2.8 SSE 30 35 16 19 1017.8 1017.8 0.0
17/06:30pm 17.5 13.0 12.6 73 2.7 SSE 28 35 15 19 1017.6 1017.6 0.0
17/06:00pm 17.8 13.6 13.4 75 2.5 SE 28 35 15 19 1017.5 1017.5 0.0
17/05:30pm 18.1 13.9 13.5 74 2.6 SE 28 35 15 19 1017.0 1017.0 0.0
17/05:00pm 18.6 14.5 13.9 74 2.7 SE 28 33 15 18 1016.8 1016.8 0.0
17/04:30pm 18.7 15.1 13.2 70 3.1 SE 24 32 13 17 1016.6 1016.6 0.0
17/04:00pm 19.0 14.9 12.6 66 3.6 SE 26 32 14 17 1016.4 1016.4 0.0
17/03:30pm 19.1 15.0 12.7 66 3.6 SSE 26 32 14 17 1016.3 1016.3 0.0
17/03:00pm 19.0 14.7 11.9 63 3.9 SE 26 32 14 17 1016.3 1016.3 0.0
17/02:30pm 19.2 16.2 12.6 65 3.7 SSE 20 28 11 15 1016.6 1016.6 0.0
17/02:00pm 19.2 16.7 12.2 64 3.9 SSE 17 24 9 13 1016.6 1016.6 0.0
17/01:30pm 18.5 15.9 12.0 66 3.6 SSE 17 22 9 12 1016.7 1016.7 0.0
17/01:00pm 17.9 15.1 11.5 66 3.5 SE 17 20 9 11 1016.7 1016.7 0.0
17/12:30pm 17.5 15.2 11.6 68 3.2 ESE 15 19 8 10 1016.9 1016.9 0.0
17/12:00pm 17.5 15.4 11.2 66 3.4 SE 13 15 7 8 1017.4 1017.4 0.0
17/11:30am 16.2 14.1 11.2 72 2.7 SE 13 17 7 9 1017.8 1017.8 0.0
17/11:00am 17.0 14.9 11.3 69 3.1 SE 13 17 7 9 1018.2 1018.2 0.0
17/10:30am 16.5 15.0 10.7 68 3.1 E 9 13 5 7 1018.5 1018.5 0.0
17/10:00am 16.3 13.2 10.4 68 3.1 E 17 20 9 11 1018.7 1018.7 0.0
17/09:30am 15.4 11.8 9.8 69 2.9 E 19 22 10 12 1018.9 1018.9 0.0
17/09:00am 14.4 9.8 9.5 72 2.5 E 24 28 13 15 1018.7 1018.7 0.0
17/08:30am 13.6 8.8 9.0 74 2.3 E 24 28 13 15 1018.6 1018.6 0.0
17/08:00am 13.4 8.8 9.5 77 2.0 E 24 30 13 16 1018.8 1018.8 0.0
17/07:30am 13.4 7.9 9.3 76 2.1 E 28 32 15 17 1018.6 1018.6 0.0
17/07:00am 13.3 8.1 8.7 73 2.3 E 26 32 14 17 1018.4 1018.4 0.0
17/06:30am 12.8 7.7 9.2 79 1.8 E 26 32 14 17 1018.0 1018.0 0.0
17/06:00am 12.8 7.6 9.0 78 1.9 ENE 26 30 14 16 1018.2 1018.2 0.0
17/05:30am 12.5 7.8 9.1 80 1.7 ENE 24 30 13 16 1018.1 1018.1 0.0
17/05:00am 12.5 7.6 8.5 76 2.0 ENE 24 28 13 15 1017.9 1017.9 0.0
17/04:30am 12.7 8.2 8.5 75 2.1 E 22 28 12 15 1018.1 1018.1 0.0
17/04:00am 12.4 7.1 8.6 77 1.9 ENE 26 28 14 15 1017.9 1017.9 0.0
17/03:30am 12.2 7.3 8.6 78 1.8 ENE 24 28 13 15 1018.1 1018.1 0.0
17/03:00am 12.0 7.9 8.6 80 1.7 ENE 20 22 11 12 1018.2 1018.2 0.0
17/02:30am 12.6 7.8 8.8 77 1.9 ENE 24 28 13 15 1018.3 1018.3 0.0
17/02:00am 13.2 7.7 9.2 77 2.0 ENE 28 33 15 18 1018.5 1018.5 0.0
17/01:30am 13.6 8.2 9.5 76 2.1 ENE 28 32 15 17 1018.6 1018.6 0.0
17/01:00am 13.7 8.8 9.8 77 2.0 ENE 26 30 14 16 1018.8 1018.8 0.0
17/12:30am 14.4 10.4 10.4 77 2.1 ENE 22 28 12 15 1019.0 1019.0 0.0
17/12:00am 15.3 10.4 11.2 76 2.2 E 28 32 15 17 1018.9 1018.9 0.0
 
Date/Time
WST
Temp
°C
App
Temp
°C
Dew
Point
Rel
Hum
%
Delta-T
°C
Wind Press
QNH
hPa
Press
MSL
hPa
Rain
since 9 am
mm
Dir
 
Spd
km/h
Gust
km/h
Spd
kts
Gust
kts
16/11:30pm 15.6 10.9 11.9 78 2.0 E 28 35 15 19 1019.2 1019.2 0.0
16/11:00pm 15.7 10.7 12.2 80 1.9 E 30 33 16 18 1019.3 1019.3 0.0
16/10:30pm 15.8 10.9 12.7 82 1.7 ESE 30 35 16 19 1019.7 1019.7 0.0
16/10:00pm 15.9 11.0 12.6 81 1.8 E 30 35 16 19 1019.6 1019.6 0.0

Other Formats:

Comma delimited format used in spreadsheet applications
http://www.bom.gov.au/fwo/IDW60801/IDW60801.94601.axf

JavaScript Object Notation format (JSON) in row-major order
http://www.bom.gov.au/fwo/IDW60801/IDW60801.94601.json